Pagrindinis puslapis
METAR-TAF:

METAR-TAF

Oro uostai :

Zamboanga, Filipinai

platuma: 06-54N, ilguma: 122-04E, Aukštis: 5 m

Dabartinis oras

Ataskaita buvo paskelbta 33 minutes, ne 01:00 UTC
Vėjas 11 kt iš Vakarų/Šiaurės Vakarų
Temperatūra 30°C
Drėgmė 70%
Slėgis 1010 hPa
Matomumas 10 km arba daugiau
Mažai debesys ne aukštis 1700 ft
Su prošvaistėmis ne aukštis 9000 ft

METAR: RPMZ 140100Z 30011KT 9999 FEW017 BKN090 30/24 Q1010 RMK A2983

Laikas: 09:33 (01:33 UTC)

Prognozė

Ataskaita buvo paskelbta 2 valandos ir 33 minutes, ne 23:00 UTC
Prognozė galioja nuo 14 metu 00 UTC su 14 metu 24 UTC
Vėjas 6 kt iš Vakarų
Matomumas 10 km arba daugiau
Mažai debesys ne aukštis 1700 ft
Su prošvaistėmis ne aukštis 30000 ft
Laikinai
nuo 14 metu 00 UTC su 14 metu 06 UTC
Vėjas 12 kt iš Vakarų/Šiaurės Vakarų
Mažai debesys ne aukštis 1600 ft, Liūtiniai kamuoliniai debesys.
Išsisklaidę debesys ne aukštis 1700 ft
Su prošvaistėmis ne aukštis 9000 ft

TAF: RPMZ 132300Z 1400/1424 26006KT 9999 FEW017 BKN300 TEMPO 1400/1406 29012KT FEW016CB SCT017 BKN090

Orai ataskaitas ir orų prognozės (METAR, TAF).

turimą stotys yra geltonos ir raudonos taškus žemėlapyje.

Perkelti pele per norėdami pamatyti stoties vardą.

Tada spustelėkite, norėdami matyti oro stebėjimo ir prognozės.

Norėdami pakeisti žemėlapį: spustelėkite ant žalios mygtukų su juodo kryžiaus žemyn,; žalią mygtuką su brūkšneliu, jei norite nutolinti; arba žalių rodyklių gretimoms žemėlapius.


METAR-TAF: